sensor_id;sensor_type;location;lat;lon;timestamp;P1;durP1;ratioP1;P2;durP2;ratioP2
12288;SDS011;6207;49.308;7.336;2022-08-19T00:01:59;23.48;;;21.05;;
12288;SDS011;6207;49.308;7.336;2022-08-19T00:04:28;23.20;;;20.70;;
12288;SDS011;6207;49.308;7.336;2022-08-19T00:06:57;23.85;;;21.35;;
12288;SDS011;6207;49.308;7.336;2022-08-19T00:09:24;23.67;;;21.30;;
12288;SDS011;6207;49.308;7.336;2022-08-19T00:11:52;23.60;;;21.15;;
12288;SDS011;6207;49.308;7.336;2022-08-19T00:14:22;23.83;;;21.30;;
12288;SDS011;6207;49.308;7.336;2022-08-19T00:16:50;24.70;;;22.13;;
12288;SDS011;6207;49.308;7.336;2022-08-19T00:19:21;24.15;;;21.70;;
12288;SDS011;6207;49.308;7.336;2022-08-19T00:21:48;25.98;;;23.27;;
12288;SDS011;6207;49.308;7.336;2022-08-19T00:24:15;25.85;;;23.15;;
12288;SDS011;6207;49.308;7.336;2022-08-19T00:26:43;25.23;;;22.60;;
12288;SDS011;6207;49.308;7.336;2022-08-19T00:29:13;25.00;;;22.30;;
12288;SDS011;6207;49.308;7.336;2022-08-19T00:31:41;26.40;;;23.13;;
12288;SDS011;6207;49.308;7.336;2022-08-19T00:34:09;26.25;;;23.27;;
12288;SDS011;6207;49.308;7.336;2022-08-19T00:36:38;30.92;;;24.42;;
12288;SDS011;6207;49.308;7.336;2022-08-19T00:39:05;26.85;;;24.15;;
12288;SDS011;6207;49.308;7.336;2022-08-19T00:41:32;27.52;;;24.58;;
12288;SDS011;6207;49.308;7.336;2022-08-19T00:44:04;27.23;;;24.30;;
12288;SDS011;6207;49.308;7.336;2022-08-19T00:46:37;25.55;;;22.85;;
12288;SDS011;6207;49.308;7.336;2022-08-19T00:49:19;25.92;;;23.25;;
12288;SDS011;6207;49.308;7.336;2022-08-19T00:52:03;27.15;;;24.10;;
12288;SDS011;6207;49.308;7.336;2022-08-19T00:54:35;25.55;;;22.95;;
12288;SDS011;6207;49.308;7.336;2022-08-19T00:57:04;27.48;;;24.58;;
12288;SDS011;6207;49.308;7.336;2022-08-19T00:59:36;26.40;;;23.60;;
12288;SDS011;6207;49.308;7.336;2022-08-19T01:02:26;28.55;;;24.95;;
12288;SDS011;6207;49.308;7.336;2022-08-19T01:04:54;27.95;;;24.73;;
12288;SDS011;6207;49.308;7.336;2022-08-19T01:07:21;28.42;;;24.60;;
12288;SDS011;6207;49.308;7.336;2022-08-19T01:09:49;27.70;;;24.55;;
12288;SDS011;6207;49.308;7.336;2022-08-19T01:12:16;26.63;;;23.95;;
12288;SDS011;6207;49.308;7.336;2022-08-19T01:14:45;27.67;;;24.67;;
12288;SDS011;6207;49.308;7.336;2022-08-19T01:17:13;28.85;;;25.45;;
12288;SDS011;6207;49.308;7.336;2022-08-19T01:19:42;27.52;;;24.58;;
12288;SDS011;6207;49.308;7.336;2022-08-19T01:24:58;28.08;;;25.10;;
12288;SDS011;6207;49.308;7.336;2022-08-19T01:27:25;28.80;;;25.70;;
12288;SDS011;6207;49.308;7.336;2022-08-19T01:30:09;28.08;;;25.20;;
12288;SDS011;6207;49.308;7.336;2022-08-19T01:32:38;30.90;;;26.92;;
12288;SDS011;6207;49.308;7.336;2022-08-19T01:35:05;29.95;;;26.83;;
12288;SDS011;6207;49.308;7.336;2022-08-19T01:37:46;30.30;;;27.13;;
12288;SDS011;6207;49.308;7.336;2022-08-19T01:40:16;31.20;;;26.75;;
12288;SDS011;6207;49.308;7.336;2022-08-19T01:42:43;28.38;;;25.45;;
12288;SDS011;6207;49.308;7.336;2022-08-19T01:45:10;31.30;;;26.83;;
12288;SDS011;6207;49.308;7.336;2022-08-19T01:47:37;31.75;;;26.20;;
12288;SDS011;6207;49.308;7.336;2022-08-19T01:50:06;31.45;;;26.55;;
12288;SDS011;6207;49.308;7.336;2022-08-19T01:52:35;32.17;;;25.92;;
12288;SDS011;6207;49.308;7.336;2022-08-19T01:55:03;29.38;;;26.17;;
12288;SDS011;6207;49.308;7.336;2022-08-19T01:57:31;28.77;;;25.77;;
12288;SDS011;6207;49.308;7.336;2022-08-19T01:59:58;29.15;;;25.98;;
12288;SDS011;6207;49.308;7.336;2022-08-19T02:02:26;28.58;;;25.58;;
12288;SDS011;6207;49.308;7.336;2022-08-19T02:04:53;29.10;;;25.90;;
12288;SDS011;6207;49.308;7.336;2022-08-19T02:07:20;29.45;;;26.27;;
12288;SDS011;6207;49.308;7.336;2022-08-19T02:09:47;28.92;;;25.90;;
12288;SDS011;6207;49.308;7.336;2022-08-19T02:12:14;28.92;;;25.83;;
12288;SDS011;6207;49.308;7.336;2022-08-19T02:14:42;28.23;;;25.02;;
12288;SDS011;6207;49.308;7.336;2022-08-19T02:17:09;28.77;;;25.77;;
12288;SDS011;6207;49.308;7.336;2022-08-19T02:19:35;29.92;;;26.20;;
12288;SDS011;6207;49.308;7.336;2022-08-19T02:22:06;29.65;;;26.52;;
12288;SDS011;6207;49.308;7.336;2022-08-19T02:24:32;28.50;;;25.30;;
12288;SDS011;6207;49.308;7.336;2022-08-19T02:27:00;31.63;;;26.70;;
12288;SDS011;6207;49.308;7.336;2022-08-19T02:29:26;29.88;;;26.70;;
12288;SDS011;6207;49.308;7.336;2022-08-19T02:31:53;31.08;;;26.48;;
12288;SDS011;6207;49.308;7.336;2022-08-19T02:34:20;29.00;;;25.63;;
12288;SDS011;6207;49.308;7.336;2022-08-19T02:36:47;29.85;;;26.75;;
12288;SDS011;6207;49.308;7.336;2022-08-19T02:39:18;29.52;;;26.25;;
12288;SDS011;6207;49.308;7.336;2022-08-19T02:41:45;29.98;;;25.73;;
12288;SDS011;6207;49.308;7.336;2022-08-19T02:44:11;29.08;;;25.83;;
12288;SDS011;6207;49.308;7.336;2022-08-19T02:46:56;28.75;;;25.70;;
12288;SDS011;6207;49.308;7.336;2022-08-19T02:49:23;29.77;;;26.45;;
12288;SDS011;6207;49.308;7.336;2022-08-19T02:51:50;30.38;;;27.10;;
12288;SDS011;6207;49.308;7.336;2022-08-19T02:54:17;30.67;;;27.00;;
12288;SDS011;6207;49.308;7.336;2022-08-19T02:56:43;29.00;;;25.88;;
12288;SDS011;6207;49.308;7.336;2022-08-19T02:59:11;29.80;;;26.70;;
12288;SDS011;6207;49.308;7.336;2022-08-19T03:01:39;29.20;;;25.65;;
12288;SDS011;6207;49.308;7.336;2022-08-19T03:04:08;30.23;;;27.00;;
12288;SDS011;6207;49.308;7.336;2022-08-19T03:06:38;30.85;;;27.33;;
12288;SDS011;6207;49.308;7.336;2022-08-19T03:09:05;28.15;;;25.25;;
12288;SDS011;6207;49.308;7.336;2022-08-19T03:11:32;32.95;;;27.33;;
12288;SDS011;6207;49.308;7.336;2022-08-19T03:14:00;28.50;;;25.50;;
12288;SDS011;6207;49.308;7.336;2022-08-19T03:16:30;27.40;;;24.58;;
12288;SDS011;6207;49.308;7.336;2022-08-19T03:18:59;27.75;;;24.92;;
12288;SDS011;6207;49.308;7.336;2022-08-19T03:21:29;26.67;;;24.05;;
12288;SDS011;6207;49.308;7.336;2022-08-19T03:23:58;29.80;;;26.70;;
12288;SDS011;6207;49.308;7.336;2022-08-19T03:26:27;28.60;;;25.58;;
12288;SDS011;6207;49.308;7.336;2022-08-19T03:28:54;29.33;;;25.38;;
12288;SDS011;6207;49.308;7.336;2022-08-19T03:31:24;27.85;;;24.92;;
12288;SDS011;6207;49.308;7.336;2022-08-19T03:34:14;26.40;;;23.60;;
12288;SDS011;6207;49.308;7.336;2022-08-19T03:36:44;26.55;;;23.80;;
12288;SDS011;6207;49.308;7.336;2022-08-19T03:39:12;27.02;;;24.23;;
12288;SDS011;6207;49.308;7.336;2022-08-19T03:41:40;26.58;;;23.73;;
12288;SDS011;6207;49.308;7.336;2022-08-19T03:44:11;27.15;;;24.35;;
12288;SDS011;6207;49.308;7.336;2022-08-19T03:46:44;28.25;;;24.98;;
12288;SDS011;6207;49.308;7.336;2022-08-19T03:49:12;25.45;;;22.92;;
12288;SDS011;6207;49.308;7.336;2022-08-19T03:51:40;27.40;;;24.15;;
12288;SDS011;6207;49.308;7.336;2022-08-19T03:54:09;26.80;;;24.05;;
12288;SDS011;6207;49.308;7.336;2022-08-19T03:56:38;27.90;;;25.00;;
12288;SDS011;6207;49.308;7.336;2022-08-19T03:59:08;26.85;;;24.10;;
12288;SDS011;6207;49.308;7.336;2022-08-19T04:01:36;27.63;;;24.02;;
12288;SDS011;6207;49.308;7.336;2022-08-19T04:04:03;27.67;;;24.75;;
12288;SDS011;6207;49.308;7.336;2022-08-19T04:06:33;28.88;;;24.98;;
12288;SDS011;6207;49.308;7.336;2022-08-19T04:09:05;27.83;;;24.63;;
12288;SDS011;6207;49.308;7.336;2022-08-19T04:11:36;28.63;;;25.50;;
12288;SDS011;6207;49.308;7.336;2022-08-19T04:14:10;31.48;;;26.80;;
12288;SDS011;6207;49.308;7.336;2022-08-19T04:16:40;31.02;;;25.52;;
12288;SDS011;6207;49.308;7.336;2022-08-19T04:19:10;28.90;;;25.88;;
12288;SDS011;6207;49.308;7.336;2022-08-19T04:21:38;30.35;;;26.67;;
12288;SDS011;6207;49.308;7.336;2022-08-19T04:24:04;31.23;;;25.80;;
12288;SDS011;6207;49.308;7.336;2022-08-19T04:26:33;30.27;;;27.10;;
12288;SDS011;6207;49.308;7.336;2022-08-19T04:29:04;29.38;;;26.02;;
12288;SDS011;6207;49.308;7.336;2022-08-19T04:31:38;30.85;;;26.83;;
12288;SDS011;6207;49.308;7.336;2022-08-19T04:34:07;32.10;;;27.42;;
12288;SDS011;6207;49.308;7.336;2022-08-19T04:36:37;31.05;;;27.70;;
12288;SDS011;6207;49.308;7.336;2022-08-19T04:39:08;30.23;;;26.95;;
12288;SDS011;6207;49.308;7.336;2022-08-19T04:41:37;30.25;;;27.00;;
12288;SDS011;6207;49.308;7.336;2022-08-19T04:44:23;29.88;;;25.77;;
12288;SDS011;6207;49.308;7.336;2022-08-19T04:46:50;28.67;;;25.40;;
12288;SDS011;6207;49.308;7.336;2022-08-19T04:49:19;30.35;;;26.17;;
12288;SDS011;6207;49.308;7.336;2022-08-19T04:51:49;29.90;;;25.55;;
12288;SDS011;6207;49.308;7.336;2022-08-19T04:54:18;29.52;;;26.38;;
12288;SDS011;6207;49.308;7.336;2022-08-19T04:57:04;29.52;;;25.55;;
12288;SDS011;6207;49.308;7.336;2022-08-19T04:59:35;28.02;;;25.17;;
12288;SDS011;6207;49.308;7.336;2022-08-19T05:02:02;30.42;;;26.52;;
12288;SDS011;6207;49.308;7.336;2022-08-19T05:04:30;27.25;;;24.45;;
12288;SDS011;6207;49.308;7.336;2022-08-19T05:06:58;28.23;;;24.52;;
12288;SDS011;6207;49.308;7.336;2022-08-19T05:09:27;27.10;;;24.23;;
12288;SDS011;6207;49.308;7.336;2022-08-19T05:12:14;28.98;;;24.67;;
12288;SDS011;6207;49.308;7.336;2022-08-19T05:14:42;26.92;;;24.27;;
12288;SDS011;6207;49.308;7.336;2022-08-19T05:17:10;26.95;;;24.20;;
12288;SDS011;6207;49.308;7.336;2022-08-19T05:19:52;26.60;;;23.88;;
12288;SDS011;6207;49.308;7.336;2022-08-19T05:22:38;29.45;;;25.98;;
12288;SDS011;6207;49.308;7.336;2022-08-19T05:25:10;27.85;;;24.85;;
12288;SDS011;6207;49.308;7.336;2022-08-19T05:27:40;27.42;;;24.63;;
12288;SDS011;6207;49.308;7.336;2022-08-19T05:30:08;27.33;;;24.55;;
12288;SDS011;6207;49.308;7.336;2022-08-19T05:32:35;26.83;;;24.23;;
12288;SDS011;6207;49.308;7.336;2022-08-19T05:35:03;26.17;;;23.52;;
12288;SDS011;6207;49.308;7.336;2022-08-19T05:37:31;25.70;;;22.98;;
12288;SDS011;6207;49.308;7.336;2022-08-19T05:39:57;26.00;;;23.35;;
12288;SDS011;6207;49.308;7.336;2022-08-19T05:42:24;27.10;;;24.35;;
12288;SDS011;6207;49.308;7.336;2022-08-19T05:44:51;26.33;;;23.73;;
12288;SDS011;6207;49.308;7.336;2022-08-19T05:47:18;25.98;;;23.20;;
12288;SDS011;6207;49.308;7.336;2022-08-19T05:49:46;25.10;;;22.70;;
12288;SDS011;6207;49.308;7.336;2022-08-19T05:52:16;25.60;;;23.02;;
12288;SDS011;6207;49.308;7.336;2022-08-19T05:54:44;26.67;;;23.80;;
12288;SDS011;6207;49.308;7.336;2022-08-19T05:57:17;27.48;;;24.23;;
12288;SDS011;6207;49.308;7.336;2022-08-19T05:59:45;27.38;;;23.65;;
12288;SDS011;6207;49.308;7.336;2022-08-19T06:02:18;26.88;;;24.10;;
12288;SDS011;6207;49.308;7.336;2022-08-19T06:04:45;26.02;;;23.40;;
12288;SDS011;6207;49.308;7.336;2022-08-19T06:07:12;24.88;;;22.25;;
12288;SDS011;6207;49.308;7.336;2022-08-19T06:09:39;23.65;;;21.42;;
12288;SDS011;6207;49.308;7.336;2022-08-19T06:12:08;23.13;;;20.92;;
12288;SDS011;6207;49.308;7.336;2022-08-19T06:14:35;22.42;;;20.50;;
12288;SDS011;6207;49.308;7.336;2022-08-19T06:17:07;21.35;;;19.45;;
12288;SDS011;6207;49.308;7.336;2022-08-19T06:19:34;21.08;;;19.27;;
12288;SDS011;6207;49.308;7.336;2022-08-19T06:22:06;20.33;;;18.42;;
12288;SDS011;6207;49.308;7.336;2022-08-19T06:24:33;20.75;;;18.85;;
12288;SDS011;6207;49.308;7.336;2022-08-19T06:27:02;21.10;;;19.20;;
12288;SDS011;6207;49.308;7.336;2022-08-19T06:29:29;21.05;;;19.05;;
12288;SDS011;6207;49.308;7.336;2022-08-19T06:31:57;20.15;;;18.27;;
12288;SDS011;6207;49.308;7.336;2022-08-19T06:34:26;19.80;;;18.13;;
12288;SDS011;6207;49.308;7.336;2022-08-19T06:36:56;19.83;;;18.23;;
12288;SDS011;6207;49.308;7.336;2022-08-19T06:39:28;18.55;;;17.00;;
12288;SDS011;6207;49.308;7.336;2022-08-19T06:41:59;19.83;;;17.95;;
12288;SDS011;6207;49.308;7.336;2022-08-19T06:44:29;19.60;;;17.92;;
12288;SDS011;6207;49.308;7.336;2022-08-19T06:47:08;18.95;;;17.35;;
12288;SDS011;6207;49.308;7.336;2022-08-19T06:49:40;18.92;;;17.33;;
12288;SDS011;6207;49.308;7.336;2022-08-19T06:52:07;18.77;;;17.08;;
12288;SDS011;6207;49.308;7.336;2022-08-19T06:54:39;19.23;;;17.30;;
12288;SDS011;6207;49.308;7.336;2022-08-19T06:57:22;18.77;;;17.27;;
12288;SDS011;6207;49.308;7.336;2022-08-19T06:59:50;19.13;;;17.52;;
12288;SDS011;6207;49.308;7.336;2022-08-19T07:02:17;18.80;;;17.17;;
12288;SDS011;6207;49.308;7.336;2022-08-19T07:04:44;19.55;;;17.85;;
12288;SDS011;6207;49.308;7.336;2022-08-19T07:07:12;19.23;;;17.45;;
12288;SDS011;6207;49.308;7.336;2022-08-19T07:09:46;18.88;;;17.30;;
12288;SDS011;6207;49.308;7.336;2022-08-19T07:12:25;18.50;;;17.00;;
12288;SDS011;6207;49.308;7.336;2022-08-19T07:14:56;17.90;;;16.27;;
12288;SDS011;6207;49.308;7.336;2022-08-19T07:17:23;18.20;;;16.50;;
12288;SDS011;6207;49.308;7.336;2022-08-19T07:19:51;17.67;;;16.27;;
12288;SDS011;6207;49.308;7.336;2022-08-19T07:22:20;17.08;;;15.68;;
12288;SDS011;6207;49.308;7.336;2022-08-19T07:24:49;18.10;;;16.38;;
12288;SDS011;6207;49.308;7.336;2022-08-19T07:27:19;17.60;;;16.20;;
12288;SDS011;6207;49.308;7.336;2022-08-19T07:29:51;17.33;;;16.00;;
12288;SDS011;6207;49.308;7.336;2022-08-19T07:32:24;17.75;;;16.30;;
12288;SDS011;6207;49.308;7.336;2022-08-19T07:34:53;18.85;;;17.27;;
12288;SDS011;6207;49.308;7.336;2022-08-19T07:37:21;18.90;;;17.38;;
12288;SDS011;6207;49.308;7.336;2022-08-19T07:39:49;17.70;;;16.20;;
12288;SDS011;6207;49.308;7.336;2022-08-19T07:42:16;18.77;;;17.23;;
12288;SDS011;6207;49.308;7.336;2022-08-19T07:44:43;18.13;;;16.73;;
12288;SDS011;6207;49.308;7.336;2022-08-19T07:47:16;18.10;;;16.55;;
12288;SDS011;6207;49.308;7.336;2022-08-19T07:50:03;20.95;;;17.35;;
12288;SDS011;6207;49.308;7.336;2022-08-19T07:52:33;17.98;;;16.10;;
12288;SDS011;6207;49.308;7.336;2022-08-19T07:55:03;17.50;;;16.00;;
12288;SDS011;6207;49.308;7.336;2022-08-19T07:57:30;18.92;;;17.25;;
12288;SDS011;6207;49.308;7.336;2022-08-19T07:59:58;19.00;;;17.10;;
12288;SDS011;6207;49.308;7.336;2022-08-19T08:02:25;17.83;;;16.33;;
12288;SDS011;6207;49.308;7.336;2022-08-19T08:04:51;19.63;;;17.98;;
12288;SDS011;6207;49.308;7.336;2022-08-19T08:07:38;18.50;;;16.90;;
12288;SDS011;6207;49.308;7.336;2022-08-19T08:10:24;18.67;;;17.15;;
12288;SDS011;6207;49.308;7.336;2022-08-19T08:12:51;21.25;;;19.13;;
12288;SDS011;6207;49.308;7.336;2022-08-19T08:15:35;19.75;;;17.95;;
12288;SDS011;6207;49.308;7.336;2022-08-19T08:18:09;20.50;;;18.60;;
12288;SDS011;6207;49.308;7.336;2022-08-19T08:20:38;20.13;;;18.02;;
12288;SDS011;6207;49.308;7.336;2022-08-19T08:23:04;20.33;;;18.60;;
12288;SDS011;6207;49.308;7.336;2022-08-19T08:25:52;20.40;;;18.67;;
12288;SDS011;6207;49.308;7.336;2022-08-19T08:28:21;20.55;;;18.75;;
12288;SDS011;6207;49.308;7.336;2022-08-19T08:30:49;20.17;;;18.50;;
12288;SDS011;6207;49.308;7.336;2022-08-19T08:33:18;19.85;;;18.05;;
12288;SDS011;6207;49.308;7.336;2022-08-19T08:35:59;18.52;;;16.90;;
12288;SDS011;6207;49.308;7.336;2022-08-19T08:38:29;18.65;;;17.05;;
12288;SDS011;6207;49.308;7.336;2022-08-19T08:41:16;19.15;;;17.38;;
12288;SDS011;6207;49.308;7.336;2022-08-19T08:43:52;17.90;;;16.23;;
12288;SDS011;6207;49.308;7.336;2022-08-19T08:51:52;16.73;;;15.23;;
12288;SDS011;6207;49.308;7.336;2022-08-19T08:54:43;15.45;;;14.07;;
12288;SDS011;6207;49.308;7.336;2022-08-19T08:57:19;15.68;;;14.32;;
12288;SDS011;6207;49.308;7.336;2022-08-19T09:00:10;15.88;;;14.57;;
12288;SDS011;6207;49.308;7.336;2022-08-19T09:02:41;16.52;;;14.95;;
12288;SDS011;6207;49.308;7.336;2022-08-19T09:05:09;16.38;;;14.98;;
12288;SDS011;6207;49.308;7.336;2022-08-19T09:08:02;13.73;;;12.63;;
12288;SDS011;6207;49.308;7.336;2022-08-19T09:10:42;14.00;;;13.00;;
12288;SDS011;6207;49.308;7.336;2022-08-19T09:15:52;13.70;;;12.68;;
12288;SDS011;6207;49.308;7.336;2022-08-19T09:18:24;13.50;;;12.55;;
12288;SDS011;6207;49.308;7.336;2022-08-19T09:20:54;12.98;;;12.07;;
12288;SDS011;6207;49.308;7.336;2022-08-19T09:23:22;12.43;;;11.52;;
12288;SDS011;6207;49.308;7.336;2022-08-19T09:39:15;13.38;;;12.30;;
12288;SDS011;6207;49.308;7.336;2022-08-19T09:41:41;12.98;;;12.07;;
12288;SDS011;6207;49.308;7.336;2022-08-19T09:44:14;12.57;;;11.65;;
12288;SDS011;6207;49.308;7.336;2022-08-19T09:46:40;13.40;;;12.40;;
12288;SDS011;6207;49.308;7.336;2022-08-19T09:49:07;14.00;;;12.68;;
12288;SDS011;6207;49.308;7.336;2022-08-19T09:51:34;13.63;;;12.35;;
12288;SDS011;6207;49.308;7.336;2022-08-19T09:54:02;12.95;;;12.15;;
12288;SDS011;6207;49.308;7.336;2022-08-19T09:56:30;12.35;;;11.55;;
12288;SDS011;6207;49.308;7.336;2022-08-19T09:58:59;12.05;;;11.32;;
12288;SDS011;6207;49.308;7.336;2022-08-19T10:01:28;13.88;;;12.80;;
12288;SDS011;6207;49.308;7.336;2022-08-19T10:03:57;12.60;;;11.38;;
12288;SDS011;6207;49.308;7.336;2022-08-19T10:06:25;12.10;;;11.38;;
12288;SDS011;6207;49.308;7.336;2022-08-19T10:09:12;12.05;;;11.32;;
12288;SDS011;6207;49.308;7.336;2022-08-19T10:11:40;12.68;;;11.60;;
12288;SDS011;6207;49.308;7.336;2022-08-19T10:14:19;12.60;;;11.80;;
12288;SDS011;6207;49.308;7.336;2022-08-19T10:16:48;12.43;;;11.40;;
12288;SDS011;6207;49.308;7.336;2022-08-19T10:19:16;12.55;;;11.73;;
12288;SDS011;6207;49.308;7.336;2022-08-19T10:21:50;11.73;;;11.02;;
12288;SDS011;6207;49.308;7.336;2022-08-19T10:24:18;11.77;;;11.07;;
12288;SDS011;6207;49.308;7.336;2022-08-19T10:26:46;12.20;;;11.50;;
12288;SDS011;6207;49.308;7.336;2022-08-19T10:29:22;11.68;;;10.88;;
12288;SDS011;6207;49.308;7.336;2022-08-19T10:31:58;12.02;;;11.30;;
12288;SDS011;6207;49.308;7.336;2022-08-19T10:34:28;11.60;;;10.93;;
12288;SDS011;6207;49.308;7.336;2022-08-19T10:36:56;11.23;;;10.30;;
12288;SDS011;6207;49.308;7.336;2022-08-19T10:39:26;11.30;;;10.60;;
12288;SDS011;6207;49.308;7.336;2022-08-19T10:42:08;11.35;;;10.60;;
12288;SDS011;6207;49.308;7.336;2022-08-19T10:44:37;11.13;;;10.43;;
12288;SDS011;6207;49.308;7.336;2022-08-19T10:47:03;10.93;;;10.32;;
12288;SDS011;6207;49.308;7.336;2022-08-19T10:49:50;11.13;;;10.52;;
12288;SDS011;6207;49.308;7.336;2022-08-19T10:52:40;10.93;;;10.30;;
12288;SDS011;6207;49.308;7.336;2022-08-19T10:55:15;11.20;;;10.50;;
12288;SDS011;6207;49.308;7.336;2022-08-19T10:58:13;11.23;;;10.32;;
12288;SDS011;6207;49.308;7.336;2022-08-19T11:00:42;10.77;;;10.07;;
12288;SDS011;6207;49.308;7.336;2022-08-19T11:03:10;10.90;;;10.20;;
12288;SDS011;6207;49.308;7.336;2022-08-19T11:05:36;10.90;;;10.20;;
12288;SDS011;6207;49.308;7.336;2022-08-19T11:08:05;11.05;;;10.35;;
12288;SDS011;6207;49.308;7.336;2022-08-19T11:10:49;11.57;;;10.80;;
12288;SDS011;6207;49.308;7.336;2022-08-19T11:13:17;10.40;;;9.80;;
12288;SDS011;6207;49.308;7.336;2022-08-19T11:15:43;11.18;;;10.48;;
12288;SDS011;6207;49.308;7.336;2022-08-19T11:18:13;10.90;;;10.30;;
12288;SDS011;6207;49.308;7.336;2022-08-19T11:20:40;10.93;;;10.13;;
12288;SDS011;6207;49.308;7.336;2022-08-19T11:23:07;10.77;;;10.18;;
12288;SDS011;6207;49.308;7.336;2022-08-19T11:25:34;10.35;;;9.75;;
12288;SDS011;6207;49.308;7.336;2022-08-19T11:28:01;11.20;;;10.50;;
12288;SDS011;6207;49.308;7.336;2022-08-19T11:30:28;10.77;;;10.07;;
12288;SDS011;6207;49.308;7.336;2022-08-19T11:32:54;10.60;;;9.90;;
12288;SDS011;6207;49.308;7.336;2022-08-19T11:35:21;11.23;;;10.52;;
12288;SDS011;6207;49.308;7.336;2022-08-19T11:37:49;10.38;;;9.77;;
12288;SDS011;6207;49.308;7.336;2022-08-19T11:40:16;10.98;;;10.30;;
12288;SDS011;6207;49.308;7.336;2022-08-19T11:42:43;10.70;;;10.07;;
12288;SDS011;6207;49.308;7.336;2022-08-19T11:45:23;11.38;;;10.63;;
12288;SDS011;6207;49.308;7.336;2022-08-19T11:47:50;10.93;;;10.32;;
12288;SDS011;6207;49.308;7.336;2022-08-19T11:50:17;10.63;;;9.95;;
12288;SDS011;6207;49.308;7.336;2022-08-19T11:52:45;10.63;;;10.02;;
12288;SDS011;6207;49.308;7.336;2022-08-19T11:55:13;11.70;;;10.75;;
12288;SDS011;6207;49.308;7.336;2022-08-19T11:57:40;10.75;;;10.15;;
12288;SDS011;6207;49.308;7.336;2022-08-19T12:00:08;11.27;;;10.13;;
12288;SDS011;6207;49.308;7.336;2022-08-19T12:02:38;10.88;;;10.23;;
12288;SDS011;6207;49.308;7.336;2022-08-19T12:05:05;10.98;;;10.35;;
12288;SDS011;6207;49.308;7.336;2022-08-19T12:07:37;10.73;;;10.02;;
12288;SDS011;6207;49.308;7.336;2022-08-19T12:10:05;9.77;;;9.07;;
12288;SDS011;6207;49.308;7.336;2022-08-19T12:12:33;10.50;;;9.85;;
12288;SDS011;6207;49.308;7.336;2022-08-19T12:15:00;10.75;;;10.07;;
12288;SDS011;6207;49.308;7.336;2022-08-19T12:17:27;10.10;;;9.50;;
12288;SDS011;6207;49.308;7.336;2022-08-19T12:19:54;10.60;;;10.00;;
12288;SDS011;6207;49.308;7.336;2022-08-19T12:22:21;10.57;;;9.88;;
12288;SDS011;6207;49.308;7.336;2022-08-19T12:24:48;9.77;;;9.18;;
12288;SDS011;6207;49.308;7.336;2022-08-19T12:27:17;10.10;;;9.50;;
12288;SDS011;6207;49.308;7.336;2022-08-19T12:30:05;9.82;;;9.23;;
12288;SDS011;6207;49.308;7.336;2022-08-19T12:32:33;10.27;;;9.57;;
12288;SDS011;6207;49.308;7.336;2022-08-19T12:35:00;9.70;;;9.20;;
12288;SDS011;6207;49.308;7.336;2022-08-19T12:37:27;10.20;;;9.50;;
12288;SDS011;6207;49.308;7.336;2022-08-19T12:39:54;10.38;;;9.68;;
12288;SDS011;6207;49.308;7.336;2022-08-19T12:42:21;9.77;;;9.27;;
12288;SDS011;6207;49.308;7.336;2022-08-19T12:44:48;9.73;;;9.13;;
12288;SDS011;6207;49.308;7.336;2022-08-19T12:47:16;9.98;;;9.48;;
12288;SDS011;6207;49.308;7.336;2022-08-19T12:49:44;10.57;;;9.70;;
12288;SDS011;6207;49.308;7.336;2022-08-19T12:52:21;10.02;;;9.45;;
12288;SDS011;6207;49.308;7.336;2022-08-19T12:54:49;9.82;;;9.23;;
12288;SDS011;6207;49.308;7.336;2022-08-19T12:57:20;9.32;;;8.73;;
12288;SDS011;6207;49.308;7.336;2022-08-19T13:00:05;10.63;;;10.02;;
12288;SDS011;6207;49.308;7.336;2022-08-19T13:02:42;9.75;;;9.05;;
12288;SDS011;6207;49.308;7.336;2022-08-19T13:05:15;10.77;;;10.18;;
12288;SDS011;6207;49.308;7.336;2022-08-19T13:07:52;11.13;;;10.25;;
12288;SDS011;6207;49.308;7.336;2022-08-19T13:10:24;11.30;;;10.60;;
12288;SDS011;6207;49.308;7.336;2022-08-19T13:13:05;11.65;;;10.93;;
12288;SDS011;6207;49.308;7.336;2022-08-19T13:15:34;11.25;;;10.48;;
12288;SDS011;6207;49.308;7.336;2022-08-19T13:18:03;11.13;;;10.32;;
12288;SDS011;6207;49.308;7.336;2022-08-19T13:20:30;11.07;;;10.38;;
12288;SDS011;6207;49.308;7.336;2022-08-19T13:22:57;11.32;;;10.60;;
12288;SDS011;6207;49.308;7.336;2022-08-19T13:25:24;10.80;;;10.05;;
12288;SDS011;6207;49.308;7.336;2022-08-19T13:27:51;11.25;;;10.55;;
12288;SDS011;6207;49.308;7.336;2022-08-19T13:30:19;11.60;;;10.80;;
12288;SDS011;6207;49.308;7.336;2022-08-19T13:33:05;11.18;;;10.45;;
12288;SDS011;6207;49.308;7.336;2022-08-19T13:38:17;11.43;;;10.63;;
12288;SDS011;6207;49.308;7.336;2022-08-19T13:40:47;10.90;;;10.10;;
12288;SDS011;6207;49.308;7.336;2022-08-19T13:43:16;12.00;;;11.20;;
12288;SDS011;6207;49.308;7.336;2022-08-19T13:45:49;11.98;;;11.07;;
12288;SDS011;6207;49.308;7.336;2022-08-19T13:48:22;12.55;;;11.75;;
12288;SDS011;6207;49.308;7.336;2022-08-19T13:50:49;13.40;;;12.30;;
12288;SDS011;6207;49.308;7.336;2022-08-19T13:53:16;13.07;;;11.93;;
12288;SDS011;6207;49.308;7.336;2022-08-19T13:55:44;12.25;;;11.40;;
12288;SDS011;6207;49.308;7.336;2022-08-19T13:58:11;12.48;;;11.57;;
12288;SDS011;6207;49.308;7.336;2022-08-19T14:00:39;12.13;;;11.15;;
12288;SDS011;6207;49.308;7.336;2022-08-19T14:03:08;13.02;;;12.13;;
12288;SDS011;6207;49.308;7.336;2022-08-19T14:05:35;12.48;;;11.50;;
12288;SDS011;6207;49.308;7.336;2022-08-19T14:08:05;13.18;;;12.20;;
12288;SDS011;6207;49.308;7.336;2022-08-19T14:10:32;12.25;;;11.45;;
12288;SDS011;6207;49.308;7.336;2022-08-19T14:13:00;13.48;;;12.35;;
12288;SDS011;6207;49.308;7.336;2022-08-19T14:15:30;13.35;;;12.35;;
12288;SDS011;6207;49.308;7.336;2022-08-19T14:17:57;13.27;;;12.38;;
12288;SDS011;6207;49.308;7.336;2022-08-19T14:20:25;13.05;;;12.20;;
12288;SDS011;6207;49.308;7.336;2022-08-19T14:22:52;13.32;;;12.23;;
12288;SDS011;6207;49.308;7.336;2022-08-19T14:25:22;14.05;;;12.82;;
12288;SDS011;6207;49.308;7.336;2022-08-19T14:27:51;13.52;;;12.63;;
12288;SDS011;6207;49.308;7.336;2022-08-19T14:30:23;12.45;;;11.50;;
12288;SDS011;6207;49.308;7.336;2022-08-19T14:32:53;12.20;;;11.40;;
12288;SDS011;6207;49.308;7.336;2022-08-19T14:35:20;13.10;;;11.98;;
12288;SDS011;6207;49.308;7.336;2022-08-19T14:37:48;12.88;;;11.88;;
12288;SDS011;6207;49.308;7.336;2022-08-19T14:40:17;12.52;;;11.45;;
12288;SDS011;6207;49.308;7.336;2022-08-19T14:42:47;12.25;;;11.45;;
12288;SDS011;6207;49.308;7.336;2022-08-19T14:45:14;12.63;;;11.63;;
12288;SDS011;6207;49.308;7.336;2022-08-19T14:47:41;12.45;;;11.55;;
12288;SDS011;6207;49.308;7.336;2022-08-19T14:50:11;12.45;;;11.55;;
12288;SDS011;6207;49.308;7.336;2022-08-19T14:52:44;11.20;;;10.50;;
12288;SDS011;6207;49.308;7.336;2022-08-19T14:55:14;12.02;;;11.27;;
12288;SDS011;6207;49.308;7.336;2022-08-19T14:57:42;11.48;;;10.77;;
12288;SDS011;6207;49.308;7.336;2022-08-19T15:00:10;11.95;;;11.25;;
12288;SDS011;6207;49.308;7.336;2022-08-19T15:02:42;11.50;;;10.80;;
12288;SDS011;6207;49.308;7.336;2022-08-19T15:05:12;11.77;;;10.95;;
12288;SDS011;6207;49.308;7.336;2022-08-19T15:07:39;11.65;;;10.93;;
12288;SDS011;6207;49.308;7.336;2022-08-19T15:10:07;11.75;;;10.95;;
12288;SDS011;6207;49.308;7.336;2022-08-19T15:12:35;11.45;;;10.75;;
12288;SDS011;6207;49.308;7.336;2022-08-19T15:15:07;10.70;;;10.10;;
12288;SDS011;6207;49.308;7.336;2022-08-19T15:17:41;11.02;;;10.43;;
12288;SDS011;6207;49.308;7.336;2022-08-19T15:20:16;11.50;;;10.70;;
12288;SDS011;6207;49.308;7.336;2022-08-19T15:22:45;11.55;;;10.70;;